createdAt,value
2018-04-12T00:00:44.838Z,1023.65
2018-04-12T00:01:44.831Z,1023.64
2018-04-12T00:02:44.824Z,1023.62
2018-04-12T00:03:44.818Z,1023.6
2018-04-12T00:04:44.811Z,1023.54
2018-04-12T00:05:44.804Z,1023.52
2018-04-12T00:06:44.797Z,1023.53
2018-04-12T00:07:44.790Z,1023.51
2018-04-12T00:08:44.783Z,1023.53
2018-04-12T00:09:44.776Z,1023.52
2018-04-12T00:10:44.768Z,1023.56
2018-04-12T00:11:44.762Z,1023.55
2018-04-12T00:12:44.767Z,1023.55
2018-04-12T00:13:44.748Z,1023.54
2018-04-12T00:14:44.741Z,1023.53
2018-04-12T00:15:44.734Z,1023.59
2018-04-12T00:16:44.728Z,1023.56
2018-04-12T00:17:44.720Z,1023.51
2018-04-12T00:18:44.714Z,1023.52
2018-04-12T00:19:44.707Z,1023.54
2018-04-12T00:20:44.701Z,1023.5
2018-04-12T00:21:44.692Z,1023.61
2018-04-12T00:22:44.687Z,1023.55
2018-04-12T00:23:44.679Z,1023.54
2018-04-12T00:24:44.672Z,1023.62
2018-04-12T00:25:44.665Z,1023.57
2018-04-12T00:26:44.658Z,1023.6
2018-04-12T00:27:44.651Z,1023.64
2018-04-12T00:28:44.644Z,1023.64
2018-04-12T00:29:44.637Z,1023.68
2018-04-12T00:30:44.631Z,1023.67
2018-04-12T00:31:44.628Z,1023.65
2018-04-12T00:32:44.615Z,1023.65
2018-04-12T00:33:44.609Z,1023.65
2018-04-12T00:34:44.601Z,1023.65
2018-04-12T00:35:44.593Z,1023.64
2018-04-12T00:36:44.588Z,1023.62
2018-04-12T00:37:44.581Z,1023.61
2018-04-12T00:38:44.574Z,1023.66
2018-04-12T00:39:44.567Z,1023.66
2018-04-12T00:40:44.559Z,1023.61
2018-04-12T00:41:44.552Z,1023.62
2018-04-12T00:42:44.545Z,1023.64
2018-04-12T00:43:44.537Z,1023.62
2018-04-12T00:44:44.530Z,1023.63
2018-04-12T00:45:44.523Z,1023.64
2018-04-12T00:46:44.516Z,1023.6
2018-04-12T00:47:44.509Z,1023.63
2018-04-12T00:48:44.502Z,1023.64
2018-04-12T00:49:44.495Z,1023.65
2018-04-12T00:50:44.487Z,1023.66
2018-04-12T00:51:44.482Z,1023.67
2018-04-12T00:52:44.473Z,1023.7
2018-04-12T00:53:44.467Z,1023.66
2018-04-12T00:54:44.458Z,1023.65
2018-04-12T00:55:44.452Z,1023.64
2018-04-12T00:56:44.450Z,1023.7
2018-04-12T00:57:44.437Z,1023.67
2018-04-12T00:58:44.430Z,1023.71
2018-04-12T00:59:44.423Z,1023.66
2018-04-12T01:00:44.418Z,1023.68
2018-04-12T01:01:44.409Z,1023.61
2018-04-12T01:02:44.403Z,1023.68
2018-04-12T01:03:44.395Z,1023.68
2018-04-12T01:04:44.388Z,1023.64
2018-04-12T01:05:44.382Z,1023.62
2018-04-12T01:06:44.373Z,1023.62
2018-04-12T01:07:44.367Z,1023.68
2018-04-12T01:08:44.359Z,1023.69
2018-04-12T01:09:44.352Z,1023.64
2018-04-12T01:10:44.345Z,1023.66
2018-04-12T01:11:44.338Z,1023.63
2018-04-12T01:12:44.330Z,1023.61
2018-04-12T01:13:44.328Z,1023.68
2018-04-12T01:14:44.315Z,1023.6
2018-04-12T01:15:44.309Z,1023.64
2018-04-12T01:16:44.301Z,1023.6
2018-04-12T01:17:44.294Z,1023.64
2018-04-12T01:18:44.289Z,1023.53
2018-04-12T01:19:44.279Z,1023.57
2018-04-12T01:20:44.271Z,1023.52
2018-04-12T01:21:44.264Z,1023.57
2018-04-12T01:22:44.258Z,1023.59
2018-04-12T01:23:44.253Z,1023.55
2018-04-12T01:24:44.245Z,1023.57
2018-04-12T01:25:44.244Z,1023.54
2018-04-12T01:26:44.230Z,1023.53
2018-04-12T01:27:44.219Z,1023.57
2018-04-12T01:28:44.213Z,1023.53
2018-04-12T01:29:44.205Z,1023.56
2018-04-12T01:30:44.197Z,1023.59
2018-04-12T01:31:44.190Z,1023.62
2018-04-12T01:32:44.184Z,1023.58
2018-04-12T01:33:44.178Z,1023.56
2018-04-12T01:34:44.167Z,1023.58
2018-04-12T01:35:44.164Z,1023.57
2018-04-12T01:36:44.159Z,1023.58
2018-04-12T01:37:44.149Z,1023.6
2018-04-12T01:38:44.139Z,1023.56
2018-04-12T01:39:44.131Z,1023.6
2018-04-12T01:40:44.125Z,1023.55
2018-04-12T01:41:44.116Z,1023.56
2018-04-12T01:42:44.109Z,1023.54
2018-04-12T01:43:44.101Z,1023.55
2018-04-12T01:44:44.095Z,1023.57
2018-04-12T01:45:44.086Z,1023.59
2018-04-12T01:46:44.079Z,1023.57
2018-04-12T01:47:44.072Z,1023.56
2018-04-12T01:48:44.063Z,1023.56
2018-04-12T01:49:44.056Z,1023.62
2018-04-12T01:50:44.049Z,1023.57
2018-04-12T01:51:44.042Z,1023.58
2018-04-12T01:52:44.033Z,1023.63
2018-04-12T01:53:44.031Z,1023.58
2018-04-12T01:54:44.019Z,1023.58
2018-04-12T01:55:44.012Z,1023.55
2018-04-12T01:56:44.005Z,1023.64
2018-04-12T01:57:43.995Z,1023.63
2018-04-12T01:58:43.988Z,1023.67
2018-04-12T01:59:43.980Z,1023.67
2018-04-12T02:00:43.972Z,1023.61
2018-04-12T02:01:43.964Z,1023.63
2018-04-12T02:02:43.958Z,1023.68
2018-04-12T02:03:43.952Z,1023.68
2018-04-12T02:04:43.943Z,1023.65
2018-04-12T02:05:43.934Z,1023.65
2018-04-12T02:06:43.928Z,1023.66
2018-04-12T02:07:43.920Z,1023.69
2018-04-12T02:08:43.912Z,1023.68
2018-04-12T02:09:43.905Z,1023.64
2018-04-12T02:10:43.896Z,1023.65
2018-04-12T02:11:43.889Z,1023.65
2018-04-12T02:12:43.881Z,1023.65
2018-04-12T02:13:43.874Z,1023.66
2018-04-12T02:14:43.866Z,1023.62
2018-04-12T02:15:43.859Z,1023.63
2018-04-12T02:16:43.857Z,1023.65
2018-04-12T02:17:43.844Z,1023.66
2018-04-12T02:18:43.835Z,1023.65
2018-04-12T02:19:43.827Z,1023.66
2018-04-12T02:20:43.820Z,1023.71
2018-04-12T02:21:43.813Z,1023.7
2018-04-12T02:22:43.811Z,1023.72
2018-04-12T02:23:43.801Z,1023.71
2018-04-12T02:24:43.790Z,1023.7
2018-04-12T02:25:43.779Z,1023.65
2018-04-12T02:26:43.775Z,1023.67
2018-04-12T02:27:43.765Z,1023.67
2018-04-12T02:28:43.765Z,1023.62
2018-04-12T02:29:43.750Z,1023.61
2018-04-12T02:30:43.742Z,1023.65
2018-04-12T02:31:43.737Z,1023.62
2018-04-12T02:32:43.725Z,1023.66
2018-04-12T02:33:43.719Z,1023.62
2018-04-12T02:34:43.710Z,1023.6
2018-04-12T02:35:43.702Z,1023.58
2018-04-12T02:36:43.694Z,1023.6
2018-04-12T02:37:43.686Z,1023.58
2018-04-12T02:38:43.680Z,1023.6
2018-04-12T02:39:43.670Z,1023.56
2018-04-12T02:40:43.663Z,1023.58
2018-04-12T02:41:43.655Z,1023.61
2018-04-12T02:42:43.647Z,1023.61
2018-04-12T02:43:43.641Z,1023.59
2018-04-12T02:44:43.630Z,1023.59
2018-04-12T02:45:43.623Z,1023.65
2018-04-12T02:46:43.616Z,1023.64
2018-04-12T02:47:43.607Z,1023.66
2018-04-12T02:48:43.600Z,1023.69
2018-04-12T02:49:43.598Z,1023.64
2018-04-12T02:50:43.609Z,1023.62
2018-04-12T02:51:43.576Z,1023.62
2018-04-12T02:52:43.569Z,1023.57
2018-04-12T02:53:43.560Z,1023.62
2018-04-12T02:54:43.552Z,1023.56
2018-04-12T02:55:43.546Z,1023.58
2018-04-12T02:56:43.535Z,1023.56
2018-04-12T02:57:43.528Z,1023.6
2018-04-12T02:58:43.520Z,1023.59
2018-04-12T02:59:43.512Z,1023.63
2018-04-12T03:00:43.504Z,1023.65
2018-04-12T03:01:43.497Z,1023.6
2018-04-12T03:02:43.488Z,1023.56
2018-04-12T03:03:43.480Z,1023.52
2018-04-12T03:04:43.473Z,1023.52
2018-04-12T03:05:43.466Z,1023.52
2018-04-12T03:06:43.456Z,1023.43
2018-04-12T03:07:43.448Z,1023.43
2018-04-12T03:08:43.439Z,1023.42
2018-04-12T03:09:43.431Z,1023.44
2018-04-12T03:10:43.431Z,1023.42
2018-04-12T03:11:43.415Z,1023.36
2018-04-12T03:12:43.407Z,1023.4
2018-04-12T03:13:43.401Z,1023.4
2018-04-12T03:14:43.391Z,1023.37
2018-04-12T03:15:43.383Z,1023.4
2018-04-12T03:16:43.374Z,1023.37
2018-04-12T03:17:43.366Z,1023.37
2018-04-12T03:18:43.365Z,1023.34
2018-04-12T03:19:43.351Z,1023.34
2018-04-12T03:20:43.343Z,1023.34
2018-04-12T03:21:43.335Z,1023.33
2018-04-12T03:22:43.328Z,1023.24
2018-04-12T03:23:43.318Z,1023.32
2018-04-12T03:24:43.309Z,1023.25
2018-04-12T03:25:43.302Z,1023.26
2018-04-12T03:26:43.294Z,1023.28
2018-04-12T03:27:43.284Z,1023.26
2018-04-12T03:28:43.278Z,1023.23
2018-04-12T03:29:43.269Z,1023.23
2018-04-12T03:30:43.264Z,1023.18
2018-04-12T03:31:43.253Z,1023.18
2018-04-12T03:32:43.244Z,1023.21
2018-04-12T03:33:43.237Z,1023.15
2018-04-12T03:34:43.227Z,1023.14
2018-04-12T03:35:43.220Z,1023.16
2018-04-12T03:36:43.211Z,1023.14
2018-04-12T03:37:43.204Z,1023.11
2018-04-12T03:38:43.194Z,1023.13
2018-04-12T03:39:43.187Z,1023.09
2018-04-12T03:40:43.178Z,1023.11
2018-04-12T03:41:43.170Z,1023.04
2018-04-12T03:42:43.161Z,1023.09
2018-04-12T03:43:43.154Z,1023.04
2018-04-12T03:44:43.146Z,1023.03
2018-04-12T03:45:43.140Z,1023.04
2018-04-12T03:46:43.133Z,1023.04
2018-04-12T03:47:43.121Z,1023.02
2018-04-12T03:48:43.185Z,1022.98
2018-04-12T03:49:43.121Z,1022.98
2018-04-12T03:50:43.099Z,1023
2018-04-12T03:51:43.090Z,1022.98
2018-04-12T03:52:43.081Z,1023.01
2018-04-12T03:53:43.072Z,1022.99
2018-04-12T03:54:43.064Z,1023.01
2018-04-12T03:55:43.056Z,1022.9
2018-04-12T03:56:43.046Z,1022.96
2018-04-12T03:57:43.039Z,1022.94
2018-04-12T03:58:43.031Z,1022.96
2018-04-12T03:59:43.023Z,1022.95
2018-04-12T04:00:43.016Z,1022.89
2018-04-12T04:01:43.064Z,1022.94
2018-04-12T04:02:42.998Z,1022.92
2018-04-12T04:03:42.990Z,1022.91
2018-04-12T04:04:42.981Z,1022.87
2018-04-12T04:05:42.973Z,1022.93
2018-04-12T04:06:42.965Z,1022.9
2018-04-12T04:07:42.959Z,1022.95
2018-04-12T04:08:42.948Z,1022.93
2018-04-12T04:09:42.940Z,1022.97
2018-04-12T04:10:42.932Z,1022.88
2018-04-12T04:11:42.923Z,1022.91
2018-04-12T04:12:42.915Z,1022.92
2018-04-12T04:13:42.907Z,1022.85
2018-04-12T04:14:42.899Z,1022.9
2018-04-12T04:15:42.890Z,1022.95
2018-04-12T04:16:42.882Z,1022.92
2018-04-12T04:17:42.874Z,1022.89
2018-04-12T04:18:42.865Z,1022.86
2018-04-12T04:19:42.858Z,1022.82
2018-04-12T04:20:42.881Z,1022.91
2018-04-12T04:21:42.841Z,1022.88
2018-04-12T04:22:42.832Z,1022.86
2018-04-12T04:23:42.836Z,1022.81
2018-04-12T04:24:42.817Z,1022.8
2018-04-12T04:25:42.810Z,1022.72
2018-04-12T04:26:42.799Z,1022.77
2018-04-12T04:27:42.793Z,1022.79
2018-04-12T04:28:42.783Z,1022.72
2018-04-12T04:29:42.776Z,1022.73
2018-04-12T04:30:42.768Z,1022.68
2018-04-12T04:31:42.767Z,1022.7
2018-04-12T04:32:42.752Z,1022.73
2018-04-12T04:33:42.743Z,1022.68
2018-04-12T04:34:42.734Z,1022.69
2018-04-12T04:35:42.727Z,1022.68
2018-04-12T04:36:42.719Z,1022.67
2018-04-12T04:37:42.710Z,1022.61
2018-04-12T04:38:42.703Z,1022.61
2018-04-12T04:39:42.697Z,1022.53
2018-04-12T04:40:42.687Z,1022.55
2018-04-12T04:41:42.681Z,1022.54
2018-04-12T04:42:42.670Z,1022.5
2018-04-12T04:43:42.670Z,1022.46
2018-04-12T04:44:42.652Z,1022.59
2018-04-12T04:45:42.645Z,1022.48
2018-04-12T04:46:42.643Z,1022.45
2018-04-12T04:47:42.630Z,1022.41
2018-04-12T04:48:42.624Z,1022.38
2018-04-12T04:49:42.614Z,1022.31
2018-04-12T04:50:42.608Z,1022.2
2018-04-12T04:51:42.599Z,1022.13
2018-04-12T04:52:42.591Z,1022.09
2018-04-12T04:53:42.587Z,1022.04
2018-04-12T04:54:42.575Z,1021.98
2018-04-12T04:55:42.566Z,1022.02
2018-04-12T04:56:42.568Z,1021.98
2018-04-12T04:57:42.552Z,1021.94
2018-04-12T04:58:42.544Z,1021.85
2018-04-12T04:59:42.539Z,1021.81
2018-04-12T05:00:42.529Z,1021.8
2018-04-12T05:01:42.522Z,1021.83
2018-04-12T05:02:42.514Z,1021.72
2018-04-12T05:03:42.507Z,1021.64
2018-04-12T05:04:42.503Z,1021.6
2018-04-12T05:05:42.493Z,1021.47
2018-04-12T05:06:42.485Z,1021.5
2018-04-12T05:07:42.479Z,1021.42
2018-04-12T05:08:42.471Z,1021.27
2018-04-12T05:09:42.464Z,1021.22
2018-04-12T05:10:42.458Z,1021.14
2018-04-12T05:11:42.451Z,1021.03
2018-04-12T05:12:42.444Z,1020.97
2018-04-12T05:13:42.437Z,1020.89
2018-04-12T05:14:42.431Z,1020.83
2018-04-12T05:15:42.453Z,1020.69
2018-04-12T05:16:42.418Z,1020.65
2018-04-12T05:17:42.411Z,1020.6
2018-04-12T05:18:42.404Z,1020.51
2018-04-12T05:19:42.399Z,1020.5
2018-04-12T05:20:42.392Z,1020.41
2018-04-12T05:21:42.387Z,1020.45
2018-04-12T05:22:42.386Z,1020.41
2018-04-12T05:23:42.380Z,1020.43
2018-04-12T05:24:42.369Z,1020.41
2018-04-12T05:25:42.362Z,1020.43
2018-04-12T05:26:42.357Z,1020.36
2018-04-12T05:27:42.358Z,1020.31
2018-04-12T05:28:42.346Z,1020.28
2018-04-12T05:29:42.340Z,1020.24
2018-04-12T05:30:42.335Z,1020.17
2018-04-12T05:31:42.329Z,1020.1
2018-04-12T05:32:42.324Z,1019.97
2018-04-12T05:33:42.319Z,1019.8
2018-04-12T05:34:42.315Z,1019.64
2018-04-12T05:35:42.309Z,1019.56
2018-04-12T05:36:42.304Z,1019.45
2018-04-12T05:37:42.300Z,1019.36
2018-04-12T05:38:42.298Z,1019.25
2018-04-12T05:39:42.289Z,1019.23
2018-04-12T05:40:42.285Z,1019.16
2018-04-12T05:41:42.282Z,1019.12
2018-04-12T05:42:42.275Z,1019
2018-04-12T05:43:42.271Z,1018.92
2018-04-12T05:44:42.268Z,1018.87
2018-04-12T05:45:42.263Z,1018.74
2018-04-12T05:46:42.258Z,1018.71
2018-04-12T05:47:42.254Z,1018.66
2018-04-12T05:48:42.251Z,1018.47
2018-04-12T05:49:42.249Z,1018.41
2018-04-12T05:50:42.242Z,1018.31
2018-04-12T05:51:42.239Z,1018.24
2018-04-12T05:52:42.239Z,1018.16
2018-04-12T05:53:42.243Z,1018.09
2018-04-12T05:54:42.234Z,1018.09
2018-04-12T05:55:42.227Z,1018.04
2018-04-12T05:56:42.225Z,1018.02
2018-04-12T05:57:42.221Z,1018.02
2018-04-12T05:58:42.216Z,1018
2018-04-12T05:59:42.214Z,1018.11
2018-04-12T06:00:42.218Z,1018.17
2018-04-12T06:01:42.214Z,1018.2
2018-04-12T06:02:42.212Z,1018.12
2018-04-12T06:03:42.212Z,1018.09
2018-04-12T06:04:42.219Z,1017.95
2018-04-12T06:05:42.229Z,1017.79
2018-04-12T06:06:42.196Z,1017.7
2018-04-12T06:07:42.200Z,1017.68
2018-04-12T06:08:42.201Z,1017.5
2018-04-12T06:09:42.190Z,1017.51
2018-04-12T06:10:42.195Z,1017.4
2018-04-12T06:11:42.190Z,1017.45
2018-04-12T06:12:42.256Z,1017.31
2018-04-12T06:13:42.182Z,1017.23
2018-04-12T06:14:42.192Z,1017.26
2018-04-12T06:15:42.180Z,1017.23
2018-04-12T06:16:42.180Z,1017.24
2018-04-12T06:17:42.185Z,1017.1
2018-04-12T06:18:42.187Z,1017.16
2018-04-12T06:19:42.180Z,1017.08
2018-04-12T06:20:42.183Z,1017.02
2018-04-12T06:21:42.182Z,1017.02
2018-04-12T06:22:42.180Z,1016.87
2018-04-12T06:23:42.181Z,1016.76
2018-04-12T06:24:42.166Z,1016.7
2018-04-12T06:25:42.169Z,1016.53
2018-04-12T06:26:42.163Z,1016.4
2018-04-12T06:27:42.166Z,1016.45
2018-04-12T06:28:42.175Z,1016.36
2018-04-12T06:29:42.159Z,1016.23
2018-04-12T06:30:42.159Z,1016.27
2018-04-12T06:31:42.157Z,1016.43
2018-04-12T06:32:42.157Z,1016.54
2018-04-12T06:33:42.155Z,1016.76
2018-04-12T06:34:42.162Z,1016.88
2018-04-12T06:35:42.164Z,1017.06
2018-04-12T06:36:42.175Z,1017.07
2018-04-12T06:37:42.152Z,1017.1
2018-04-12T06:38:42.151Z,1017.24
2018-04-12T06:39:42.151Z,1017.26
2018-04-12T06:40:42.152Z,1017.35
2018-04-12T06:41:42.154Z,1017.46
2018-04-12T06:42:42.189Z,1017.41
2018-04-12T06:43:42.153Z,1017.35
2018-04-12T06:44:42.157Z,1017.3
2018-04-12T06:45:42.145Z,1017.31
2018-04-12T06:46:42.176Z,1017.51
2018-04-12T06:47:42.183Z,1017.45
2018-04-12T06:48:42.150Z,1017.51
2018-04-12T06:49:42.141Z,1017.6
2018-04-12T06:50:42.141Z,1017.69
2018-04-12T06:51:42.138Z,1017.73
2018-04-12T06:52:42.145Z,1017.87
2018-04-12T06:53:42.180Z,1018.07
2018-04-12T06:54:42.135Z,1018.15
2018-04-12T06:55:42.133Z,1018.26
2018-04-12T06:56:42.130Z,1018.34
2018-04-12T06:57:42.137Z,1018.36
2018-04-12T06:58:42.129Z,1018.47
2018-04-12T06:59:42.124Z,1018.54
2018-04-12T07:00:42.121Z,1018.66
2018-04-12T07:01:42.119Z,1018.73
2018-04-12T07:02:42.123Z,1018.81
2018-04-12T07:03:42.125Z,1018.82
2018-04-12T07:04:42.124Z,1018.97
2018-04-12T07:05:42.118Z,1018.96
2018-04-12T07:06:42.112Z,1019.03
2018-04-12T07:07:42.108Z,1019.07
2018-04-12T07:08:42.102Z,1019.15
2018-04-12T07:09:42.099Z,1019.1
2018-04-12T07:10:42.103Z,1019.1
2018-04-12T07:11:42.098Z,1019.03
2018-04-12T07:12:42.091Z,1019.15
2018-04-12T07:13:42.094Z,1019.11
2018-04-12T07:14:42.089Z,1019.12
2018-04-12T07:15:42.083Z,1019.05
2018-04-12T07:16:42.080Z,1019.08
2018-04-12T07:17:42.075Z,1019.04
2018-04-12T07:18:42.072Z,1019.12
2018-04-12T07:19:42.069Z,1019.06
2018-04-12T07:20:42.065Z,1018.97
2018-04-12T07:21:42.062Z,1018.99
2018-04-12T07:22:42.060Z,1019.04
2018-04-12T07:23:42.056Z,1018.88
2018-04-12T07:24:42.053Z,1018.84
2018-04-12T07:25:42.049Z,1018.81
2018-04-12T07:26:42.046Z,1018.83
2018-04-12T07:27:42.044Z,1018.73
2018-04-12T07:28:42.044Z,1018.63
2018-04-12T07:29:42.039Z,1018.6
2018-04-12T07:30:42.033Z,1018.54
2018-04-12T07:31:42.035Z,1018.47
2018-04-12T07:32:42.026Z,1018.38
2018-04-12T07:33:42.053Z,1018.14
2018-04-12T07:34:42.021Z,1017.66
2018-04-12T07:35:42.018Z,1017.35
2018-04-12T07:36:42.013Z,1016.98
2018-04-12T07:37:42.011Z,1016.52
2018-04-12T07:38:42.012Z,1016.23
2018-04-12T07:39:42.007Z,1016.16
2018-04-12T07:40:42.011Z,1015.62
2018-04-12T07:41:42.013Z,1015.05
2018-04-12T07:42:42.011Z,1014.65
2018-04-12T07:43:42.081Z,1014.32
2018-04-12T07:44:41.998Z,1014.15
2018-04-12T07:45:41.998Z,1013.97
2018-04-12T07:46:41.999Z,1013.86
2018-04-12T07:47:41.998Z,1013.85
2018-04-12T07:48:42.005Z,1013.78
2018-04-12T07:49:42.004Z,1013.77
2018-04-12T07:50:42.017Z,1013.77
2018-04-12T07:51:42.005Z,1013.87
2018-04-12T07:52:42.013Z,1014.03
2018-04-12T07:53:42.009Z,1014.12
2018-04-12T07:54:42.011Z,1014.35
2018-04-12T07:55:42.014Z,1014.39
2018-04-12T07:56:42.059Z,1014.33
2018-04-12T07:57:42.061Z,1014.3
2018-04-12T07:58:42.024Z,1014.41
2018-04-12T07:59:42.027Z,1014.57
2018-04-12T08:00:42.031Z,1015.08
2018-04-12T08:01:42.031Z,1015.25
2018-04-12T08:02:42.033Z,1015.59
2018-04-12T08:03:42.036Z,1015.92
2018-04-12T08:04:42.043Z,1016.3
2018-04-12T08:05:42.049Z,1016.38
2018-04-12T08:06:42.042Z,1016.6
2018-04-12T08:07:42.054Z,1016.78
2018-04-12T08:08:42.045Z,1016.82
2018-04-12T08:09:42.048Z,1016.98
2018-04-12T08:10:42.048Z,1017.02
2018-04-12T08:11:42.049Z,1017.01
2018-04-12T08:12:42.050Z,1016.98
2018-04-12T08:13:42.054Z,1016.71
2018-04-12T08:14:42.069Z,1016.48
2018-04-12T08:15:42.055Z,1016.02
2018-04-12T08:16:42.057Z,1015.65
2018-04-12T08:17:42.062Z,1015.37
2018-04-12T08:18:42.064Z,1015.15
2018-04-12T08:19:42.058Z,1014.88
2018-04-12T08:20:42.055Z,1014.74
2018-04-12T08:21:42.056Z,1014.83
2018-04-12T08:22:42.063Z,1014.84
2018-04-12T08:23:42.061Z,1015.07
2018-04-12T08:24:42.063Z,1015.15
2018-04-12T08:25:42.062Z,1015.43
2018-04-12T08:26:42.068Z,1015.65
2018-04-12T08:27:42.066Z,1015.85
2018-04-12T08:28:42.080Z,1015.94
2018-04-12T08:29:42.073Z,1016.02
2018-04-12T08:30:42.068Z,1016.08
2018-04-12T08:31:42.083Z,1016.18
2018-04-12T08:32:42.071Z,1016.23
2018-04-12T08:33:42.078Z,1016.36
2018-04-12T08:34:42.071Z,1016.39
2018-04-12T08:35:42.073Z,1016.43
2018-04-12T08:36:42.074Z,1016.52
2018-04-12T08:37:42.076Z,1016.55
2018-04-12T08:38:42.075Z,1016.62
2018-04-12T08:39:42.083Z,1016.66
2018-04-12T08:40:42.090Z,1016.74
2018-04-12T08:41:42.087Z,1016.83
2018-04-12T08:42:42.084Z,1016.86
2018-04-12T08:43:42.097Z,1016.89
2018-04-12T08:44:42.094Z,1016.91
2018-04-12T08:45:42.088Z,1016.88
2018-04-12T08:46:42.095Z,1016.93
2018-04-12T08:47:42.100Z,1017.12
2018-04-12T08:48:42.097Z,1017.02
2018-04-12T08:49:42.094Z,1016.98
2018-04-12T08:50:42.098Z,1017
2018-04-12T08:51:42.079Z,1016.97
2018-04-12T08:52:42.091Z,1016.8
2018-04-12T08:53:42.091Z,1016.86
2018-04-12T08:54:42.102Z,1016.91
2018-04-12T08:55:42.100Z,1016.86
2018-04-12T08:56:42.085Z,1016.83
2018-04-12T08:57:42.078Z,1016.92
2018-04-12T08:58:42.083Z,1016.8
2018-04-12T08:59:42.087Z,1016.83
2018-04-12T09:00:42.094Z,1016.76
2018-04-12T09:01:42.099Z,1016.76
2018-04-12T09:02:42.087Z,1016.74
2018-04-12T09:03:42.074Z,1016.59
2018-04-12T09:04:42.083Z,1016.51
2018-04-12T09:05:42.085Z,1016.45
2018-04-12T09:06:42.074Z,1016.37
2018-04-12T09:07:42.074Z,1016.25
2018-04-12T09:08:42.088Z,1016.18
2018-04-12T09:09:42.080Z,1016.21
2018-04-12T09:10:42.093Z,1016.14
2018-04-12T09:11:42.076Z,1016.09
2018-04-12T09:12:42.087Z,1016.09
2018-04-12T09:13:42.074Z,1016.11
2018-04-12T09:14:42.101Z,1015.98
2018-04-12T09:15:42.075Z,1016.06
2018-04-12T09:16:42.079Z,1016.04
2018-04-12T09:17:42.076Z,1016
2018-04-12T09:18:42.076Z,1016.02
2018-04-12T09:19:42.076Z,1015.97
2018-04-12T09:20:42.076Z,1015.95
2018-04-12T09:21:42.078Z,1015.96
2018-04-12T09:22:42.076Z,1015.98
2018-04-12T09:23:42.077Z,1015.84
2018-04-12T09:24:42.084Z,1015.84
2018-04-12T09:25:42.083Z,1015.82
2018-04-12T09:26:42.082Z,1015.7
2018-04-12T09:27:42.102Z,1015.69
2018-04-12T09:28:42.082Z,1015.7
2018-04-12T09:29:42.082Z,1015.63
2018-04-12T09:30:42.082Z,1015.61
2018-04-12T09:31:42.084Z,1015.59
2018-04-12T09:32:42.083Z,1015.59
2018-04-12T09:33:42.089Z,1015.57
2018-04-12T09:34:42.086Z,1015.49
2018-04-12T09:35:42.093Z,1015.54
2018-04-12T09:36:42.088Z,1015.41
2018-04-12T09:37:42.089Z,1015.34
2018-04-12T09:38:42.090Z,1015.26
2018-04-12T09:39:42.092Z,1015.2
2018-04-12T09:40:42.096Z,1015.32
2018-04-12T09:41:42.094Z,1015.23
2018-04-12T09:42:42.093Z,1015.45
2018-04-12T09:43:42.094Z,1015.31
2018-04-12T09:44:42.097Z,1015.34
2018-04-12T09:45:42.096Z,1015.26
2018-04-12T09:46:42.097Z,1015.44
2018-04-12T09:47:42.111Z,1015.45
2018-04-12T09:48:42.099Z,1015.51
2018-04-12T09:49:42.101Z,1015.52
2018-04-12T09:50:42.102Z,1015.64
2018-04-12T09:51:42.101Z,1015.7
2018-04-12T09:52:42.103Z,1015.73
2018-04-12T09:53:42.104Z,1015.62
2018-04-12T09:54:42.110Z,1015.64
2018-04-12T09:55:42.113Z,1015.68
2018-04-12T09:56:42.107Z,1015.67
2018-04-12T09:57:42.120Z,1015.74
2018-04-12T09:58:42.108Z,1015.64
2018-04-12T09:59:42.109Z,1015.66
2018-04-12T10:00:42.119Z,1015.53
2018-04-12T10:01:42.112Z,1015.47
2018-04-12T10:02:42.112Z,1015.5
2018-04-12T10:03:42.121Z,1015.46
2018-04-12T10:04:42.122Z,1015.46
2018-04-12T10:05:42.113Z,1015.57
2018-04-12T10:06:42.114Z,1015.47
2018-04-12T10:07:42.136Z,1015.46
2018-04-12T10:08:42.134Z,1015.44
2018-04-12T10:09:42.117Z,1015.44
2018-04-12T10:10:42.117Z,1015.39
2018-04-12T10:11:42.141Z,1015.41
2018-04-12T10:12:42.128Z,1015.31
2018-04-12T10:13:42.128Z,1015.29
2018-04-12T10:14:42.132Z,1015.14
2018-04-12T10:15:42.126Z,1015.14
2018-04-12T10:16:42.144Z,1015.14
2018-04-12T10:17:42.129Z,1015.07
2018-04-12T10:18:42.127Z,1015.12
2018-04-12T10:19:42.128Z,1015.05
2018-04-12T10:20:42.127Z,1015.06
2018-04-12T10:21:42.162Z,1015
2018-04-12T10:22:42.132Z,1014.96
2018-04-12T10:23:42.132Z,1015.03
2018-04-12T10:24:42.133Z,1014.9
2018-04-12T10:25:42.140Z,1014.95
2018-04-12T10:26:42.136Z,1014.78
2018-04-12T10:27:42.147Z,1014.91
2018-04-12T10:28:42.200Z,1014.91
2018-04-12T10:29:42.150Z,1014.76
2018-04-12T10:30:42.152Z,1014.79
2018-04-12T10:31:42.150Z,1014.87
2018-04-12T10:32:42.154Z,1014.74
2018-04-12T10:33:42.149Z,1014.87
2018-04-12T10:34:42.158Z,1014.75
2018-04-12T10:35:42.169Z,1014.76
2018-04-12T10:36:42.151Z,1014.81
2018-04-12T10:37:42.169Z,1014.84
2018-04-12T10:38:42.195Z,1014.94
2018-04-12T10:39:42.196Z,1014.85
2018-04-12T10:40:42.168Z,1014.84
2018-04-12T10:41:42.205Z,1014.72
2018-04-12T10:42:42.179Z,1014.58
2018-04-12T10:43:42.179Z,1014.56
2018-04-12T10:44:42.186Z,1014.55
2018-04-12T10:45:42.169Z,1014.63
2018-04-12T10:46:42.201Z,1014.55
2018-04-12T10:47:42.183Z,1014.56
2018-04-12T10:48:42.173Z,1014.57
2018-04-12T10:49:42.190Z,1014.51
2018-04-12T10:50:42.180Z,1014.58
2018-04-12T10:51:42.207Z,1014.54
2018-04-12T10:52:42.204Z,1014.51
2018-04-12T10:53:42.199Z,1014.46
2018-04-12T10:54:42.185Z,1014.47
2018-04-12T10:55:42.191Z,1014.46
2018-04-12T10:56:42.197Z,1014.41
2018-04-12T10:57:42.207Z,1014.42
2018-04-12T10:58:42.193Z,1014.3
2018-04-12T10:59:42.207Z,1014.27
2018-04-12T11:00:42.204Z,1014.29
2018-04-12T11:01:42.200Z,1014.4
2018-04-12T11:02:42.215Z,1014.35
2018-04-12T11:03:42.208Z,1014.43
2018-04-12T11:04:42.219Z,1014.35
2018-04-12T11:05:42.224Z,1014.42
2018-04-12T11:06:42.214Z,1014.35
2018-04-12T11:07:42.225Z,1014.31
2018-04-12T11:08:42.221Z,1014.39
2018-04-12T11:09:42.227Z,1014.39
2018-04-12T11:10:42.251Z,1014.37
2018-04-12T11:11:42.227Z,1014.34
2018-04-12T11:12:42.245Z,1014.37
2018-04-12T11:13:42.229Z,1014.41
2018-04-12T11:14:42.232Z,1014.39
2018-04-12T11:15:42.246Z,1014.3
2018-04-12T11:16:42.248Z,1014.44
2018-04-12T11:17:42.255Z,1014.44
2018-04-12T11:18:42.263Z,1014.6
2018-04-12T11:19:42.244Z,1014.72
2018-04-12T11:20:42.247Z,1014.79
2018-04-12T11:21:42.255Z,1014.91
2018-04-12T11:22:42.258Z,1014.93
2018-04-12T11:23:42.272Z,1014.92
2018-04-12T11:24:42.265Z,1015.31
2018-04-12T11:25:42.261Z,1015.06
2018-04-12T11:26:42.272Z,1015.16
2018-04-12T11:27:42.280Z,1015.29
2018-04-12T11:28:42.266Z,1015.23
2018-04-12T11:29:42.268Z,1015.21
2018-04-12T11:30:42.270Z,1015.27
2018-04-12T11:31:42.285Z,1015.36
2018-04-12T11:32:42.276Z,1015.2
2018-04-12T11:33:42.277Z,1015.52
2018-04-12T11:34:42.287Z,1015.44
2018-04-12T11:35:42.292Z,1015.57
2018-04-12T11:36:42.282Z,1015.41
2018-04-12T11:37:42.282Z,1015.39
2018-04-12T11:38:42.289Z,1015.43
2018-04-12T11:39:42.289Z,1015.35
2018-04-12T11:40:42.298Z,1015.58
2018-04-12T11:41:42.540Z,1015.41
2018-04-12T11:42:42.302Z,1015.32
2018-04-12T11:43:42.303Z,1015.38
2018-04-12T11:44:42.302Z,1015.32
2018-04-12T11:45:42.296Z,1015.33
2018-04-12T11:46:42.307Z,1015.5
2018-04-12T11:47:42.307Z,1015.33
2018-04-12T11:48:42.299Z,1015.5
2018-04-12T11:49:42.304Z,1015.4
2018-04-12T11:50:42.303Z,1015.54
2018-04-12T11:51:42.314Z,1015.44
2018-04-12T11:52:42.308Z,1015.32
2018-04-12T11:53:42.306Z,1015.44
2018-04-12T11:54:42.307Z,1015.44
2018-04-12T11:55:42.323Z,1015.41
2018-04-12T11:56:42.357Z,1015.44
2018-04-12T11:57:42.309Z,1015.49
2018-04-12T11:58:42.326Z,1015.5
2018-04-12T11:59:42.311Z,1015.41
2018-04-12T12:00:42.312Z,1015.3
2018-04-12T12:01:42.349Z,1015.35
2018-04-12T12:02:42.313Z,1015.39
2018-04-12T12:03:42.313Z,1015.31
2018-04-12T12:04:42.314Z,1015.42
2018-04-12T12:05:42.319Z,1015.26
2018-04-12T12:06:42.316Z,1015.18
2018-04-12T12:07:42.317Z,1015.28
2018-04-12T12:08:42.318Z,1015.38